createdAt,value
2024-01-09T00:00:43.752Z,62.67
2024-01-09T00:03:31.709Z,62.71
2024-01-09T00:05:59.253Z,62.85
2024-01-09T00:08:27.125Z,62.80
2024-01-09T00:10:54.667Z,62.83
2024-01-09T00:13:22.200Z,62.76
2024-01-09T00:15:49.744Z,62.83
2024-01-09T00:18:17.221Z,62.74
2024-01-09T00:20:44.926Z,62.77
2024-01-09T00:23:12.466Z,62.62
2024-01-09T00:25:39.988Z,62.61
2024-01-09T00:28:07.483Z,62.63
2024-01-09T00:30:34.970Z,62.73
2024-01-09T00:33:02.653Z,62.87
2024-01-09T00:35:30.392Z,62.92
2024-01-09T00:37:57.880Z,62.90
2024-01-09T00:40:25.349Z,62.92
2024-01-09T00:42:53.015Z,62.92
2024-01-09T00:45:20.442Z,62.77
2024-01-09T00:47:48.071Z,62.77
2024-01-09T00:50:15.761Z,62.72
2024-01-09T00:52:43.190Z,62.79
2024-01-09T00:55:11.862Z,62.99
2024-01-09T00:57:39.484Z,63.02
2024-01-09T01:00:07.693Z,63.17
2024-01-09T01:02:35.248Z,63.17
2024-01-09T01:05:03.084Z,63.23
2024-01-09T01:07:30.678Z,63.23
2024-01-09T01:09:58.205Z,63.14
2024-01-09T01:12:25.629Z,63.01
2024-01-09T01:14:53.056Z,62.89
2024-01-09T01:17:20.590Z,62.73
2024-01-09T01:19:48.061Z,62.71
2024-01-09T01:22:15.566Z,62.74
2024-01-09T01:24:43.038Z,62.88
2024-01-09T01:27:10.508Z,62.90
2024-01-09T01:29:37.941Z,62.85
2024-01-09T01:32:10.370Z,62.86
2024-01-09T01:34:38.520Z,63.02
2024-01-09T01:37:06.463Z,63.02
2024-01-09T01:39:33.889Z,63.01
2024-01-09T01:42:02.756Z,63.02
2024-01-09T01:44:30.949Z,62.95
2024-01-09T01:46:58.467Z,63.03
2024-01-09T01:49:26.865Z,62.92
2024-01-09T01:51:54.790Z,62.74
2024-01-09T01:54:24.129Z,62.81
2024-01-09T01:56:52.954Z,62.68
2024-01-09T01:59:22.370Z,62.74
2024-01-09T02:01:50.173Z,62.67
2024-01-09T02:04:20.407Z,62.63
2024-01-09T02:06:48.214Z,62.63
2024-01-09T02:09:16.531Z,62.52
2024-01-09T02:11:44.423Z,62.60
2024-01-09T02:14:12.212Z,62.73
2024-01-09T02:16:40.239Z,62.70
2024-01-09T02:19:07.788Z,62.72
2024-01-09T02:21:35.325Z,62.65
2024-01-09T02:24:02.765Z,62.61
2024-01-09T02:26:46.416Z,62.62
2024-01-09T02:29:24.524Z,62.77
2024-01-09T02:31:53.252Z,62.65
2024-01-09T02:35:12.309Z,62.61
2024-01-09T02:37:40.784Z,62.59
2024-01-09T02:40:09.400Z,62.59
2024-01-09T02:42:36.897Z,62.58
2024-01-09T02:45:04.776Z,62.75
2024-01-09T02:47:32.345Z,62.70
2024-01-09T02:50:00.010Z,62.83
2024-01-09T02:52:27.587Z,62.56
2024-01-09T02:54:55.221Z,62.58
2024-01-09T02:57:22.696Z,62.62
2024-01-09T02:59:50.328Z,62.66
2024-01-09T03:02:17.993Z,62.60
2024-01-09T03:04:45.572Z,62.56
2024-01-09T03:07:13.256Z,62.59
2024-01-09T03:09:44.324Z,62.49
2024-01-09T03:12:11.854Z,62.44
2024-01-09T03:14:39.607Z,62.49
2024-01-09T03:17:07.238Z,62.66
2024-01-09T03:19:34.828Z,62.70
2024-01-09T03:22:02.345Z,62.67
2024-01-09T03:24:29.930Z,62.65
2024-01-09T03:26:57.418Z,62.62
2024-01-09T03:29:24.998Z,62.60
2024-01-09T03:31:52.676Z,62.62
2024-01-09T03:34:20.163Z,62.62
2024-01-09T03:36:47.810Z,62.66
2024-01-09T03:39:18.169Z,62.58
2024-01-09T03:41:46.164Z,62.73
2024-01-09T03:44:14.047Z,62.70
2024-01-09T03:46:41.853Z,62.64
2024-01-09T03:49:11.232Z,62.58
2024-01-09T03:51:38.919Z,62.53
2024-01-09T03:54:06.486Z,62.58
2024-01-09T03:56:34.092Z,62.59
2024-01-09T03:59:01.770Z,62.71
2024-01-09T04:01:29.282Z,62.71
2024-01-09T04:03:57.995Z,62.76
2024-01-09T04:06:25.773Z,62.63
2024-01-09T04:08:53.452Z,62.70
2024-01-09T04:11:21.130Z,62.69
2024-01-09T04:13:48.747Z,62.66
2024-01-09T04:16:16.888Z,62.91
2024-01-09T04:18:44.445Z,63.01
2024-01-09T04:21:11.989Z,63.08
2024-01-09T04:23:39.517Z,63.10
2024-01-09T04:26:07.016Z,63.22
2024-01-09T04:28:34.524Z,63.21
2024-01-09T04:31:02.150Z,63.20
2024-01-09T04:33:29.906Z,63.27
2024-01-09T04:35:57.865Z,63.14
2024-01-09T04:38:25.691Z,63.08
2024-01-09T04:40:53.324Z,63.00
2024-01-09T04:43:20.852Z,63.02
2024-01-09T04:45:48.697Z,63.02
2024-01-09T04:48:16.372Z,63.13
2024-01-09T04:50:44.216Z,63.09
2024-01-09T04:53:12.019Z,63.11
2024-01-09T04:55:39.655Z,63.04
2024-01-09T04:58:07.162Z,63.05
2024-01-09T05:00:34.752Z,63.13
2024-01-09T05:03:02.379Z,63.16
2024-01-09T05:05:30.097Z,63.24
2024-01-09T05:07:57.946Z,63.26
2024-01-09T05:10:25.473Z,63.03
2024-01-09T05:12:52.957Z,62.91
2024-01-09T05:15:20.427Z,62.91
2024-01-09T05:17:48.352Z,63.09
2024-01-09T05:20:16.293Z,63.26
2024-01-09T05:22:43.962Z,63.32
2024-01-09T05:25:11.562Z,63.33
2024-01-09T05:27:39.524Z,63.34
2024-01-09T05:30:10.262Z,63.41
2024-01-09T05:32:37.969Z,63.43
2024-01-09T05:35:06.776Z,63.43
2024-01-09T05:37:34.362Z,63.48
2024-01-09T05:40:01.903Z,63.42
2024-01-09T05:42:29.697Z,63.39
2024-01-09T05:44:57.558Z,63.45
2024-01-09T05:47:25.595Z,63.57
2024-01-09T05:49:53.350Z,63.53
2024-01-09T05:52:20.973Z,63.59
2024-01-09T05:54:48.946Z,63.54
2024-01-09T05:57:16.467Z,63.47
2024-01-09T05:59:44.246Z,63.37
2024-01-09T06:02:12.434Z,63.25
2024-01-09T06:04:40.145Z,63.19
2024-01-09T06:07:07.746Z,63.20
2024-01-09T06:09:36.177Z,63.13
2024-01-09T06:12:03.999Z,63.06
2024-01-09T06:14:31.629Z,63.09
2024-01-09T06:17:01.080Z,63.01
2024-01-09T06:19:28.720Z,62.89
2024-01-09T06:21:56.411Z,62.99
2024-01-09T06:24:24.295Z,62.93
2024-01-09T06:26:51.996Z,62.93
2024-01-09T06:29:20.098Z,63.08
2024-01-09T06:31:47.684Z,63.20
2024-01-09T06:34:15.529Z,63.22
2024-01-09T06:36:46.827Z,63.16
2024-01-09T06:39:14.372Z,63.22
2024-01-09T06:41:42.764Z,63.23
2024-01-09T06:44:11.134Z,63.23
2024-01-09T06:46:38.796Z,63.11
2024-01-09T06:49:06.558Z,63.10
2024-01-09T06:51:34.246Z,63.09
2024-01-09T06:54:01.846Z,63.17
2024-01-09T06:56:32.163Z,63.26
2024-01-09T06:58:59.799Z,63.38
2024-01-09T07:01:27.656Z,63.53
2024-01-09T07:03:55.978Z,63.56
2024-01-09T07:06:25.556Z,63.62
2024-01-09T07:08:53.477Z,63.70
2024-01-09T07:11:21.452Z,63.67
2024-01-09T07:13:49.105Z,63.66
2024-01-09T07:16:16.668Z,63.61
2024-01-09T07:18:44.312Z,63.59
2024-01-09T07:21:12.139Z,63.56
2024-01-09T07:23:40.074Z,63.86
2024-01-09T07:26:08.530Z,63.88
2024-01-09T07:28:36.726Z,63.89
2024-01-09T07:31:04.989Z,63.90
2024-01-09T07:33:32.705Z,63.98
2024-01-09T07:36:00.509Z,63.95
2024-01-09T07:38:28.388Z,63.98
2024-01-09T07:40:58.713Z,63.99
2024-01-09T07:43:28.361Z,64.05
2024-01-09T07:45:56.149Z,64.13
2024-01-09T07:48:24.431Z,64.17
2024-01-09T07:50:52.447Z,64.12
2024-01-09T07:53:21.001Z,64.17
2024-01-09T07:55:49.542Z,64.30
2024-01-09T07:58:17.853Z,64.32
2024-01-09T08:00:47.039Z,64.38
2024-01-09T08:03:18.510Z,64.44
2024-01-09T08:05:48.353Z,64.40
2024-01-09T08:08:16.000Z,64.50
2024-01-09T08:10:43.496Z,64.64
2024-01-09T08:13:11.384Z,64.71
2024-01-09T08:15:38.913Z,64.78
2024-01-09T08:18:06.676Z,64.85
2024-01-09T08:20:34.363Z,64.74
2024-01-09T08:23:02.077Z,64.83
2024-01-09T08:25:29.937Z,64.83
2024-01-09T08:27:57.881Z,64.93
2024-01-09T08:30:25.638Z,65.08
2024-01-09T08:32:53.437Z,64.97
2024-01-09T08:35:21.249Z,65.05
2024-01-09T08:37:48.971Z,65.09
2024-01-09T08:40:16.615Z,64.98
2024-01-09T08:42:44.247Z,65.00
2024-01-09T08:45:14.240Z,65.17
2024-01-09T08:47:42.544Z,65.14
2024-01-09T08:50:10.512Z,65.02
2024-01-09T08:52:38.813Z,64.89
2024-01-09T08:55:07.117Z,65.10
2024-01-09T08:57:34.792Z,65.24
2024-01-09T09:00:03.140Z,65.29
2024-01-09T09:02:31.084Z,65.42
2024-01-09T09:04:58.684Z,65.51
2024-01-09T09:07:27.263Z,65.61
2024-01-09T09:09:56.333Z,65.80
2024-01-09T09:12:24.042Z,65.87
2024-01-09T09:14:51.711Z,65.87
2024-01-09T09:17:20.529Z,65.86
2024-01-09T09:19:48.410Z,66.02
2024-01-09T09:22:16.010Z,65.92
2024-01-09T09:24:43.675Z,65.83
2024-01-09T09:27:11.382Z,65.67
2024-01-09T09:29:40.296Z,65.63
2024-01-09T09:32:08.918Z,65.56
2024-01-09T09:34:36.497Z,65.67
2024-01-09T09:37:04.343Z,65.64
2024-01-09T09:39:31.963Z,65.54
2024-01-09T09:41:59.812Z,65.51
2024-01-09T09:44:28.339Z,65.48
2024-01-09T09:46:59.357Z,65.56
2024-01-09T09:49:27.987Z,65.57
2024-01-09T09:51:56.420Z,65.38
2024-01-09T09:54:25.768Z,65.53
2024-01-09T09:56:53.601Z,65.64
2024-01-09T09:59:21.429Z,65.57
2024-01-09T10:01:49.991Z,65.45
2024-01-09T10:04:28.937Z,65.61
2024-01-09T10:06:58.304Z,65.97
2024-01-09T10:09:39.046Z,65.92
2024-01-09T10:12:07.700Z,65.84
2024-01-09T10:14:35.205Z,65.80
2024-01-09T10:17:06.440Z,65.68
2024-01-09T10:19:34.156Z,65.66
2024-01-09T10:22:02.004Z,65.69
2024-01-09T10:24:29.609Z,65.35
2024-01-09T10:26:58.012Z,65.83
2024-01-09T10:29:25.642Z,65.87
2024-01-09T10:31:53.384Z,65.48
2024-01-09T10:34:21.133Z,65.62
2024-01-09T10:36:48.969Z,65.23
2024-01-09T10:39:17.124Z,65.03
2024-01-09T10:41:45.303Z,65.42
2024-01-09T10:44:15.472Z,65.47
2024-01-09T10:46:45.088Z,65.31
2024-01-09T10:49:14.503Z,65.40
2024-01-09T10:51:43.562Z,65.37
2024-01-09T10:54:13.541Z,65.42
2024-01-09T10:56:44.030Z,65.38
2024-01-09T10:59:14.766Z,65.14
2024-01-09T11:01:42.564Z,64.85
2024-01-09T11:04:11.050Z,64.65
2024-01-09T11:06:45.925Z,64.51
2024-01-09T11:09:16.564Z,64.33
2024-01-09T11:11:47.241Z,64.59
2024-01-09T11:14:18.818Z,64.92
2024-01-09T11:16:49.771Z,64.46
2024-01-09T11:19:18.300Z,64.57
2024-01-09T11:21:46.102Z,64.56
2024-01-09T11:24:16.231Z,63.98
2024-01-09T11:26:44.278Z,63.68
2024-01-09T11:29:15.007Z,63.55
2024-01-09T11:31:43.107Z,63.61
2024-01-09T11:34:26.509Z,63.80
2024-01-09T11:36:54.186Z,63.62
2024-01-09T11:39:21.834Z,64.23
2024-01-09T11:41:51.041Z,64.11
2024-01-09T11:44:18.841Z,63.96
2024-01-09T11:46:48.661Z,63.67
2024-01-09T11:49:16.564Z,63.82
2024-01-09T11:51:44.241Z,64.05
2024-01-09T11:54:14.094Z,63.72
2024-01-09T11:56:41.948Z,63.67
2024-01-09T11:59:09.424Z,63.34
2024-01-09T12:01:37.069Z,62.84
2024-01-09T12:04:04.850Z,62.35
2024-01-09T12:06:32.871Z,62.56
2024-01-09T12:09:01.980Z,62.59
2024-01-09T12:11:30.595Z,62.81
2024-01-09T12:14:02.424Z,62.50
2024-01-09T12:16:31.914Z,62.79
2024-01-09T12:19:02.037Z,62.86
2024-01-09T12:21:35.711Z,63.17
2024-01-09T12:26:38.374Z,63.49
2024-01-09T12:29:07.119Z,63.62
2024-01-09T12:31:35.448Z,63.65
2024-01-09T12:34:04.997Z,63.74
2024-01-09T12:36:33.220Z,63.72
2024-01-09T12:39:00.914Z,63.57
2024-01-09T12:41:30.613Z,63.61
2024-01-09T12:44:09.698Z,63.41
2024-01-09T12:46:37.543Z,63.34
2024-01-09T12:49:05.934Z,63.41
2024-01-09T12:51:36.774Z,63.60
2024-01-09T12:54:04.775Z,63.56
2024-01-09T12:56:32.704Z,63.83
2024-01-09T12:59:00.527Z,64.04
2024-01-09T13:01:30.901Z,63.57
2024-01-09T13:04:00.643Z,62.94
2024-01-09T13:06:28.569Z,63.12
2024-01-09T13:08:56.463Z,63.11
2024-01-09T13:11:24.463Z,63.40
2024-01-09T13:13:53.502Z,63.55
2024-01-09T13:16:21.122Z,63.48
2024-01-09T13:18:48.865Z,63.75
2024-01-09T13:21:16.738Z,63.99
2024-01-09T13:23:49.896Z,63.91
2024-01-09T13:26:22.025Z,63.54
2024-01-09T13:31:20.783Z,64.23
2024-01-09T13:33:48.578Z,64.12
2024-01-09T13:36:18.646Z,63.98
2024-01-09T13:38:47.301Z,64.05
2024-01-09T13:41:16.907Z,63.64
2024-01-09T13:43:44.508Z,63.90
2024-01-09T13:46:12.637Z,64.36
2024-01-09T13:48:43.821Z,64.53
2024-01-09T13:53:44.905Z,63.93
2024-01-09T13:56:12.434Z,63.87
2024-01-09T13:58:39.985Z,63.51
2024-01-09T14:01:07.507Z,63.61
2024-01-09T14:03:35.033Z,63.77
2024-01-09T14:06:02.628Z,63.49
2024-01-09T14:08:32.974Z,63.86
2024-01-09T14:11:00.898Z,64.13
2024-01-09T14:13:28.491Z,63.83
2024-01-09T14:15:57.583Z,63.62
2024-01-09T14:18:25.140Z,63.49
2024-01-09T14:20:52.674Z,62.87
2024-01-09T14:23:20.256Z,62.59
2024-01-09T14:25:47.785Z,62.51
2024-01-09T14:28:16.218Z,62.38
2024-01-09T14:30:47.011Z,62.36
2024-01-09T14:33:14.800Z,62.36
2024-01-09T14:35:42.716Z,62.38
2024-01-09T14:38:10.387Z,62.37
2024-01-09T14:40:38.111Z,62.25
2024-01-09T14:43:05.650Z,62.20
2024-01-09T14:45:33.104Z,62.45
2024-01-09T14:48:00.892Z,62.45
2024-01-09T14:50:28.887Z,62.53
2024-01-09T14:52:56.396Z,62.78
2024-01-09T14:55:25.263Z,62.76
2024-01-09T14:57:53.650Z,62.83
2024-01-09T15:00:21.254Z,62.83
2024-01-09T15:02:52.430Z,62.77
2024-01-09T15:05:21.325Z,62.81
2024-01-09T15:07:49.199Z,62.84
2024-01-09T15:10:16.966Z,62.77
2024-01-09T15:12:44.760Z,62.93
2024-01-09T15:15:12.698Z,63.02
2024-01-09T15:17:41.638Z,63.07
2024-01-09T15:20:11.416Z,62.98
2024-01-09T15:22:39.470Z,63.09
2024-01-09T15:25:07.954Z,63.09
2024-01-09T15:27:35.473Z,63.20
2024-01-09T15:30:03.077Z,63.23
2024-01-09T15:32:30.664Z,63.30
2024-01-09T15:35:00.277Z,63.22
2024-01-09T15:37:29.555Z,63.25
2024-01-09T15:39:57.036Z,63.20
2024-01-09T15:42:25.298Z,63.21
2024-01-09T15:44:52.898Z,63.21
2024-01-09T15:47:20.633Z,63.15
2024-01-09T15:49:48.338Z,63.25
2024-01-09T15:52:16.996Z,63.25
2024-01-09T15:54:44.622Z,63.37
2024-01-09T15:57:12.586Z,63.27
2024-01-09T15:59:41.073Z,63.35
2024-01-09T16:02:08.856Z,63.37
2024-01-09T16:04:43.111Z,63.37
2024-01-09T16:07:12.348Z,63.36
2024-01-09T16:09:40.047Z,63.34
2024-01-09T16:12:07.760Z,63.38
2024-01-09T16:14:38.070Z,63.41
2024-01-09T16:17:05.706Z,63.55
2024-01-09T16:19:33.386Z,63.51
2024-01-09T16:22:00.936Z,63.48
2024-01-09T16:24:28.469Z,63.47
2024-01-09T16:26:56.123Z,63.34
2024-01-09T16:29:23.956Z,63.36
2024-01-09T16:31:51.478Z,63.41
2024-01-09T16:34:19.344Z,63.41
2024-01-09T16:36:46.945Z,63.47
2024-01-09T16:39:15.671Z,63.53
2024-01-09T16:41:44.777Z,63.51
2024-01-09T16:44:13.165Z,63.50
2024-01-09T16:46:41.839Z,63.49
2024-01-09T16:49:10.713Z,63.39
2024-01-09T16:51:43.384Z,63.51
2024-01-09T16:54:11.048Z,63.57
2024-01-09T16:56:38.713Z,63.46
2024-01-09T16:59:06.745Z,63.54
2024-01-09T17:01:34.464Z,63.54
2024-01-09T17:04:01.928Z,63.48
2024-01-09T17:06:29.464Z,63.40
2024-01-09T17:08:57.018Z,63.39
2024-01-09T17:11:24.587Z,63.33
2024-01-09T17:13:53.047Z,63.28
2024-01-09T17:16:22.823Z,63.30
2024-01-09T17:18:50.465Z,63.26
2024-01-09T17:21:18.081Z,63.34
2024-01-09T17:23:46.438Z,63.21
2024-01-09T17:26:14.667Z,63.36
2024-01-09T17:28:42.263Z,63.37
2024-01-09T17:31:09.934Z,63.34
2024-01-09T17:33:40.857Z,63.42
2024-01-09T17:36:08.536Z,63.42
2024-01-09T17:38:35.974Z,63.46
2024-01-09T17:41:04.022Z,63.45
2024-01-09T17:43:32.799Z,63.45
2024-01-09T17:46:00.929Z,63.58
2024-01-09T17:48:28.670Z,63.56
2024-01-09T17:50:56.741Z,63.55
2024-01-09T17:53:24.247Z,63.63
2024-01-09T17:55:51.801Z,63.64
2024-01-09T17:58:21.827Z,63.66
2024-01-09T18:00:49.438Z,63.48
2024-01-09T18:03:16.987Z,63.43
2024-01-09T18:05:46.680Z,63.55
2024-01-09T18:08:14.326Z,63.49
2024-01-09T18:10:43.003Z,63.42
2024-01-09T18:13:10.851Z,63.49
2024-01-09T18:15:38.311Z,63.54
2024-01-09T18:18:07.839Z,63.55
2024-01-09T18:20:36.829Z,63.60
2024-01-09T18:23:04.675Z,63.56
2024-01-09T18:25:32.459Z,63.51
2024-01-09T18:28:03.613Z,63.59
2024-01-09T18:30:31.178Z,63.57
2024-01-09T18:33:00.390Z,63.59
2024-01-09T18:35:29.038Z,63.67
2024-01-09T18:37:56.712Z,63.67
2024-01-09T18:40:25.376Z,63.67
2024-01-09T18:42:52.986Z,63.70
2024-01-09T18:45:20.466Z,63.72
2024-01-09T18:47:48.130Z,63.65
2024-01-09T18:50:15.868Z,63.71
2024-01-09T18:52:43.435Z,63.69
2024-01-09T18:55:11.092Z,63.71
2024-01-09T18:57:38.599Z,63.76
2024-01-09T19:00:08.678Z,63.67
2024-01-09T19:02:36.203Z,63.61
2024-01-09T19:05:07.867Z,63.69
2024-01-09T19:07:35.709Z,63.53
2024-01-09T19:10:03.250Z,63.64
2024-01-09T19:12:30.732Z,63.62
2024-01-09T19:14:58.262Z,63.67
2024-01-09T19:17:26.338Z,63.66
2024-01-09T19:19:55.538Z,63.72
2024-01-09T19:22:23.392Z,63.71
2024-01-09T19:24:51.126Z,63.66
2024-01-09T19:27:18.739Z,63.62
2024-01-09T19:29:48.431Z,63.72
2024-01-09T19:32:16.359Z,63.65
2024-01-09T19:34:43.890Z,63.68
2024-01-09T19:37:11.438Z,63.70
2024-01-09T19:39:39.239Z,63.71
2024-01-09T19:42:08.852Z,63.79
2024-01-09T19:44:36.646Z,63.73
2024-01-09T19:47:05.600Z,63.68
2024-01-09T19:49:33.191Z,63.74
2024-01-09T19:52:05.733Z,63.70
2024-01-09T19:54:33.456Z,63.68
2024-01-09T19:57:01.008Z,63.73
2024-01-09T19:59:29.969Z,63.71
2024-01-09T20:01:57.481Z,63.77
2024-01-09T20:04:25.406Z,63.84
2024-01-09T20:06:53.194Z,63.71
2024-01-09T20:09:20.899Z,63.75
2024-01-09T20:11:48.422Z,63.78
2024-01-09T20:14:16.046Z,63.79
2024-01-09T20:16:43.724Z,63.81
2024-01-09T20:19:11.383Z,63.80
2024-01-09T20:21:40.756Z,63.81
2024-01-09T20:24:08.283Z,63.81
2024-01-09T20:26:36.869Z,63.84
2024-01-09T20:29:09.095Z,63.94
2024-01-09T20:31:40.520Z,63.99
2024-01-09T20:34:08.345Z,63.98
2024-01-09T20:36:42.669Z,64.03
2024-01-09T20:39:15.962Z,64.11
2024-01-09T20:41:44.335Z,64.08
2024-01-09T20:44:21.046Z,64.16
2024-01-09T20:46:49.276Z,64.20
2024-01-09T20:49:16.829Z,64.29
2024-01-09T20:51:44.481Z,64.37
2024-01-09T20:54:12.191Z,64.54
2024-01-09T20:56:40.963Z,64.59
2024-01-09T20:59:09.558Z,64.64
2024-01-09T21:01:39.017Z,64.81
2024-01-09T21:04:13.282Z,64.88
2024-01-09T21:06:46.450Z,65.06
2024-01-09T21:09:15.203Z,65.30
2024-01-09T21:11:45.788Z,65.35
2024-01-09T21:14:13.331Z,65.47
2024-01-09T21:16:41.444Z,65.54
2024-01-09T21:19:09.254Z,65.61
2024-01-09T21:21:37.119Z,65.70
2024-01-09T21:24:05.077Z,65.74
2024-01-09T21:26:32.650Z,65.96
2024-01-09T21:29:00.241Z,66.12
2024-01-09T21:31:30.810Z,66.18
2024-01-09T21:33:59.058Z,66.20
2024-01-09T21:36:26.864Z,66.43
2024-01-09T21:38:54.408Z,66.52
2024-01-09T21:41:21.902Z,66.52
2024-01-09T21:43:50.200Z,66.55
2024-01-09T21:46:17.938Z,66.55
2024-01-09T21:48:47.318Z,66.69
2024-01-09T21:51:15.037Z,66.79
2024-01-09T21:53:42.494Z,66.72
2024-01-09T21:56:10.008Z,66.77
2024-01-09T21:58:37.599Z,66.95
2024-01-09T22:01:05.128Z,66.96
2024-01-09T22:03:32.829Z,67.00
2024-01-09T22:06:00.501Z,66.94
2024-01-09T22:08:28.205Z,66.98
2024-01-09T22:10:55.703Z,67.03
2024-01-09T22:13:23.335Z,67.11
2024-01-09T22:15:52.269Z,67.17
2024-01-09T22:18:20.362Z,67.27
2024-01-09T22:20:48.146Z,67.31
2024-01-09T22:23:15.707Z,67.29
2024-01-09T22:25:43.382Z,67.43
2024-01-09T22:28:12.644Z,67.66
2024-01-09T22:30:43.250Z,67.66
2024-01-09T22:33:11.617Z,67.81
2024-01-09T22:35:41.962Z,67.82
2024-01-09T22:38:09.839Z,67.88
2024-01-09T22:40:37.421Z,68.00
2024-01-09T22:43:04.974Z,68.03
2024-01-09T22:45:32.471Z,68.07
2024-01-09T22:48:00.165Z,68.13
2024-01-09T22:50:27.878Z,68.16
2024-01-09T22:52:55.456Z,68.26
2024-01-09T22:55:22.975Z,68.33
2024-01-09T22:57:50.692Z,68.45
2024-01-09T23:00:35.547Z,68.44
2024-01-09T23:03:03.407Z,68.44
2024-01-09T23:05:31.117Z,68.48
2024-01-09T23:08:00.212Z,68.59
2024-01-09T23:10:29.922Z,68.71
2024-01-09T23:12:57.679Z,68.69
2024-01-09T23:15:26.722Z,68.73
2024-01-09T23:17:54.633Z,68.78
2024-01-09T23:20:22.477Z,68.83
2024-01-09T23:22:50.278Z,68.77
2024-01-09T23:25:17.917Z,68.68
2024-01-09T23:27:45.439Z,68.65
2024-01-09T23:30:14.392Z,68.56
2024-01-09T23:32:42.112Z,68.70
2024-01-09T23:35:09.807Z,68.78
2024-01-09T23:37:38.074Z,68.85
2024-01-09T23:40:07.850Z,68.73
2024-01-09T23:42:35.760Z,68.77
2024-01-09T23:45:04.340Z,68.81
2024-01-09T23:47:32.087Z,68.99
2024-01-09T23:49:59.693Z,69.05
2024-01-09T23:52:27.370Z,69.01
2024-01-09T23:54:54.849Z,69.16
2024-01-09T23:57:23.998Z,69.14
2024-01-09T23:59:54.916Z,69.19
